createdAt,value
2022-08-29T00:00:50.849Z,78.58
2022-08-29T00:01:50.855Z,78.68
2022-08-29T00:02:50.844Z,78.58
2022-08-29T00:03:50.862Z,78.58
2022-08-29T00:04:50.789Z,78.58
2022-08-29T00:05:50.795Z,78.58
2022-08-29T00:06:50.788Z,78.58
2022-08-29T00:07:50.752Z,78.68
2022-08-29T00:08:50.750Z,78.82
2022-08-29T00:09:50.730Z,78.92
2022-08-29T00:10:50.738Z,79.13
2022-08-29T00:11:50.739Z,78.92
2022-08-29T00:12:50.710Z,78.82
2022-08-29T00:13:50.702Z,78.82
2022-08-29T00:14:50.692Z,78.48
2022-08-29T00:15:50.683Z,78.99
2022-08-29T00:16:50.767Z,78.72
2022-08-29T00:17:50.632Z,78.82
2022-08-29T00:18:50.623Z,79.23
2022-08-29T00:19:50.609Z,79.02
2022-08-29T00:20:50.626Z,79.13
2022-08-29T00:21:50.586Z,79.23
2022-08-29T00:22:50.588Z,79.53
2022-08-29T00:23:50.565Z,79.63
2022-08-29T00:24:50.574Z,79.84
2022-08-29T00:25:50.588Z,79.68
2022-08-29T00:26:50.544Z,79.77
2022-08-29T00:27:50.516Z,79.68
2022-08-29T00:28:50.546Z,79.88
2022-08-29T00:29:50.505Z,79.98
2022-08-29T00:30:50.518Z,80.29
2022-08-29T00:31:50.516Z,80.32
2022-08-29T00:32:50.486Z,80.32
2022-08-29T00:33:50.503Z,80.42
2022-08-29T00:34:50.446Z,80.42
2022-08-29T00:35:50.475Z,80.18
2022-08-29T00:36:50.428Z,80.08
2022-08-29T00:37:50.430Z,79.98
2022-08-29T00:38:50.420Z,80.08
2022-08-29T00:39:50.397Z,79.81
2022-08-29T00:40:51.700Z,79.81
2022-08-29T00:41:50.397Z,79.71
2022-08-29T00:42:50.358Z,79.81
2022-08-29T00:43:50.334Z,79.81
2022-08-29T00:44:50.353Z,79.71
2022-08-29T00:45:50.398Z,79.91
2022-08-29T00:46:50.322Z,80.26
2022-08-29T00:47:50.310Z,80.36
2022-08-29T00:48:50.308Z,80.46
2022-08-29T00:49:50.298Z,80.66
2022-08-29T00:50:50.296Z,80.87
2022-08-29T00:51:50.279Z,80.97
2022-08-29T00:52:50.250Z,80.97
2022-08-29T00:53:50.225Z,80.97
2022-08-29T00:54:50.226Z,81.07
2022-08-29T00:55:51.191Z,80.97
2022-08-29T00:56:50.207Z,80.97
2022-08-29T00:57:50.184Z,81.07
2022-08-29T00:58:50.244Z,81.07
2022-08-29T00:59:50.175Z,81.07
2022-08-29T01:00:50.228Z,81.17
2022-08-29T01:01:50.182Z,81.38
2022-08-29T01:02:50.144Z,81.48
2022-08-29T01:03:50.115Z,81.38
2022-08-29T01:04:50.115Z,81.48
2022-08-29T01:05:50.164Z,81.27
2022-08-29T01:06:50.085Z,81.58
2022-08-29T01:07:50.063Z,81.48
2022-08-29T01:08:50.075Z,81.68
2022-08-29T01:09:50.068Z,81.68
2022-08-29T01:10:50.086Z,81.27
2022-08-29T01:11:50.062Z,81.07
2022-08-29T01:12:50.015Z,80.66
2022-08-29T01:13:50.015Z,80.77
2022-08-29T01:14:50.026Z,80.97
2022-08-29T01:15:49.993Z,81.07
2022-08-29T01:16:50.031Z,81.07
2022-08-29T01:17:49.958Z,80.87
2022-08-29T01:18:49.949Z,81.07
2022-08-29T01:19:49.950Z,81.38
2022-08-29T01:20:49.967Z,81.48
2022-08-29T01:21:49.936Z,81.68
2022-08-29T01:22:49.915Z,81.58
2022-08-29T01:23:49.886Z,81.48
2022-08-29T01:24:49.909Z,81.68
2022-08-29T01:25:49.930Z,81.88
2022-08-29T01:26:49.854Z,82.13
2022-08-29T01:27:49.867Z,82.33
2022-08-29T01:28:49.839Z,82.13
2022-08-29T01:29:49.848Z,82.03
2022-08-29T01:30:49.841Z,81.58
2022-08-29T01:31:57.401Z,80.87
2022-08-29T01:32:49.843Z,81.07
2022-08-29T01:33:49.797Z,81.48
2022-08-29T01:34:49.777Z,81.68
2022-08-29T01:35:49.798Z,81.17
2022-08-29T01:36:49.750Z,81.58
2022-08-29T01:37:49.726Z,81.99
2022-08-29T01:38:49.718Z,82.03
2022-08-29T01:39:49.736Z,81.41
2022-08-29T01:40:49.734Z,81.72
2022-08-29T01:41:49.701Z,81.58
2022-08-29T01:42:49.672Z,81.79
2022-08-29T01:43:49.691Z,81.79
2022-08-29T01:44:49.649Z,81.68
2022-08-29T01:45:49.739Z,82.03
2022-08-29T01:46:49.705Z,81.82
2022-08-29T01:47:49.615Z,81.93
2022-08-29T01:48:49.605Z,81.93
2022-08-29T01:49:49.617Z,81.93
2022-08-29T01:50:49.628Z,81.93
2022-08-29T01:51:49.586Z,81.82
2022-08-29T01:52:49.582Z,82.03
2022-08-29T01:53:49.589Z,82.23
2022-08-29T01:54:49.555Z,82.23
2022-08-29T01:55:49.544Z,82.03
2022-08-29T01:56:49.553Z,81.82
2022-08-29T01:57:49.510Z,81.41
2022-08-29T01:58:49.518Z,81.72
2022-08-29T01:59:49.471Z,81.21
2022-08-29T02:00:49.633Z,81.82
2022-08-29T02:01:49.529Z,81.82
2022-08-29T02:02:49.439Z,81.86
2022-08-29T02:03:49.428Z,81.82
2022-08-29T02:04:49.470Z,81.76
2022-08-29T02:05:49.463Z,81.25
2022-08-29T02:06:49.403Z,81.56
2022-08-29T02:07:49.389Z,81.76
2022-08-29T02:08:49.390Z,81.76
2022-08-29T02:09:49.384Z,81.86
2022-08-29T02:10:49.371Z,81.45
2022-08-29T02:11:49.338Z,81.76
2022-08-29T02:12:49.360Z,81.76
2022-08-29T02:13:49.319Z,81.76
2022-08-29T02:14:49.303Z,81.76
2022-08-29T02:15:49.320Z,81.66
2022-08-29T02:16:49.282Z,81.45
2022-08-29T02:17:49.298Z,81.35
2022-08-29T02:18:49.274Z,81.35
2022-08-29T02:19:49.295Z,81.56
2022-08-29T02:20:49.261Z,81.45
2022-08-29T02:21:49.231Z,81.35
2022-08-29T02:22:49.230Z,80.84
2022-08-29T02:23:49.245Z,81.04
2022-08-29T02:24:49.194Z,80.94
2022-08-29T02:25:49.221Z,81.35
2022-08-29T02:26:49.163Z,81.45
2022-08-29T02:27:49.222Z,81.56
2022-08-29T02:28:49.166Z,81.56
2022-08-29T02:29:49.167Z,81.76
2022-08-29T02:30:49.867Z,81.76
2022-08-29T02:31:49.191Z,82.21
2022-08-29T02:32:49.145Z,82.71
2022-08-29T02:33:49.117Z,82.82
2022-08-29T02:34:49.098Z,82.82
2022-08-29T02:35:49.105Z,82.92
2022-08-29T02:36:49.382Z,82.51
2022-08-29T02:37:49.049Z,82.31
2022-08-29T02:38:49.142Z,82.31
2022-08-29T02:39:49.061Z,82.31
2022-08-29T02:40:49.150Z,82.31
2022-08-29T02:41:48.986Z,81.80
2022-08-29T02:42:48.985Z,82.14
2022-08-29T02:43:48.974Z,82.35
2022-08-29T02:44:48.955Z,82.31
2022-08-29T02:45:48.986Z,82.21
2022-08-29T02:46:49.137Z,81.80
2022-08-29T02:47:48.924Z,81.90
2022-08-29T02:49:00.611Z,82.14
2022-08-29T02:49:48.906Z,81.94
2022-08-29T02:50:48.924Z,81.63
2022-08-29T02:51:48.925Z,81.73
2022-08-29T02:52:48.892Z,81.84
2022-08-29T02:53:48.862Z,82.14
2022-08-29T02:54:48.861Z,81.94
2022-08-29T02:55:48.877Z,82.14
2022-08-29T02:56:48.825Z,82.24
2022-08-29T02:57:48.816Z,82.35
2022-08-29T02:58:48.804Z,82.14
2022-08-29T02:59:48.854Z,82.14
2022-08-29T03:00:48.880Z,82.14
2022-08-29T03:01:48.873Z,82.45
2022-08-29T03:02:48.771Z,82.65
2022-08-29T03:03:48.762Z,82.04
2022-08-29T03:04:48.773Z,82.04
2022-08-29T03:05:48.739Z,82.14
2022-08-29T03:06:48.730Z,82.35
2022-08-29T03:07:50.974Z,82.55
2022-08-29T03:08:48.693Z,82.55
2022-08-29T03:09:48.701Z,82.45
2022-08-29T03:10:48.697Z,82.24
2022-08-29T03:11:48.663Z,82.35
2022-08-29T03:12:48.648Z,82.55
2022-08-29T03:13:48.652Z,82.69
2022-08-29T03:14:48.654Z,82.79
2022-08-29T03:15:48.700Z,83.10
2022-08-29T03:16:48.671Z,83.10
2022-08-29T03:17:48.609Z,82.69
2022-08-29T03:18:48.628Z,82.89
2022-08-29T03:19:48.596Z,83.20
2022-08-29T03:20:48.585Z,83.10
2022-08-29T03:21:48.594Z,82.59
2022-08-29T03:22:48.530Z,82.28
2022-08-29T03:23:48.545Z,82.49
2022-08-29T03:24:48.534Z,82.69
2022-08-29T03:25:48.527Z,83.00
2022-08-29T03:26:48.541Z,83.00
2022-08-29T03:27:48.483Z,82.69
2022-08-29T03:28:48.500Z,82.79
2022-08-29T03:29:48.449Z,82.89
2022-08-29T03:30:48.452Z,83.20
2022-08-29T03:31:48.499Z,83.20
2022-08-29T03:32:48.425Z,83.30
2022-08-29T03:33:48.409Z,83.10
2022-08-29T03:34:48.411Z,82.89
2022-08-29T03:35:48.379Z,82.59
2022-08-29T03:36:48.379Z,82.59
2022-08-29T03:37:48.350Z,82.69
2022-08-29T03:38:48.339Z,82.49
2022-08-29T03:39:48.349Z,82.73
2022-08-29T03:40:48.343Z,82.83
2022-08-29T03:41:48.365Z,82.93
2022-08-29T03:42:48.298Z,82.93
2022-08-29T03:43:48.283Z,82.93
2022-08-29T03:44:48.276Z,82.93
2022-08-29T03:45:48.294Z,82.63
2022-08-29T03:46:48.336Z,82.42
2022-08-29T03:47:48.299Z,82.53
2022-08-29T03:48:48.235Z,82.63
2022-08-29T03:49:48.238Z,82.83
2022-08-29T03:50:48.215Z,83.34
2022-08-29T03:51:48.228Z,83.75
2022-08-29T03:52:48.221Z,84.06
2022-08-29T03:53:48.174Z,84.06
2022-08-29T03:54:48.184Z,83.75
2022-08-29T03:55:48.145Z,83.34
2022-08-29T03:56:48.184Z,83.34
2022-08-29T03:57:48.131Z,83.65
2022-08-29T03:58:52.865Z,84.06
2022-08-29T03:59:48.109Z,84.36
2022-08-29T04:00:48.102Z,84.36
2022-08-29T04:01:48.203Z,83.85
2022-08-29T04:02:48.225Z,83.54
2022-08-29T04:03:48.076Z,83.95
2022-08-29T04:04:48.044Z,84.06
2022-08-29T04:05:48.029Z,83.85
2022-08-29T04:06:48.047Z,83.85
2022-08-29T04:07:48.083Z,84.06
2022-08-29T04:08:48.004Z,84.16
2022-08-29T04:09:48.003Z,84.16
2022-08-29T04:10:47.981Z,83.95
2022-08-29T04:11:48.032Z,83.54
2022-08-29T04:12:52.456Z,83.85
2022-08-29T04:13:47.983Z,84.16
2022-08-29T04:14:47.937Z,84.47
2022-08-29T04:15:47.991Z,84.47
2022-08-29T04:16:47.973Z,84.26
2022-08-29T04:17:53.044Z,84.47
2022-08-29T04:18:47.899Z,84.67
2022-08-29T04:19:47.930Z,84.16
2022-08-29T04:20:47.903Z,84.06
2022-08-29T04:21:47.875Z,84.77
2022-08-29T04:22:47.845Z,84.98
2022-08-29T04:23:48.091Z,83.95
2022-08-29T04:24:47.861Z,83.75
2022-08-29T04:25:47.845Z,84.57
2022-08-29T04:26:47.839Z,84.77
2022-08-29T04:27:47.787Z,84.77
2022-08-29T04:28:47.791Z,84.77
2022-08-29T04:29:47.772Z,84.98
2022-08-29T04:30:51.738Z,85.28
2022-08-29T04:31:47.794Z,85.49
2022-08-29T04:32:47.732Z,85.59
2022-08-29T04:33:47.745Z,85.79
2022-08-29T04:34:47.736Z,85.38
2022-08-29T04:35:47.726Z,85.18
2022-08-29T04:36:47.701Z,85.08
2022-08-29T04:37:47.673Z,84.98
2022-08-29T04:38:47.683Z,84.88
2022-08-29T04:39:47.669Z,84.67
2022-08-29T04:40:47.641Z,84.57
2022-08-29T04:41:47.659Z,84.67
2022-08-29T04:42:47.670Z,84.77
2022-08-29T04:43:47.645Z,84.77
2022-08-29T04:44:47.588Z,84.67
2022-08-29T04:45:47.602Z,84.98
2022-08-29T04:46:47.675Z,84.47
2022-08-29T04:47:47.568Z,84.26
2022-08-29T04:48:47.546Z,84.88
2022-08-29T04:49:47.553Z,85.38
2022-08-29T04:50:47.530Z,85.59
2022-08-29T04:51:47.549Z,85.49
2022-08-29T04:52:47.554Z,85.45
2022-08-29T04:53:47.498Z,84.83
2022-08-29T04:54:47.479Z,84.83
2022-08-29T04:55:47.507Z,85.14
2022-08-29T04:56:50.132Z,85.14
2022-08-29T04:57:47.471Z,85.04
2022-08-29T04:58:47.450Z,85.14
2022-08-29T04:59:47.414Z,85.24
2022-08-29T05:00:47.403Z,85.04
2022-08-29T05:01:47.503Z,85.04
2022-08-29T05:02:47.430Z,84.74
2022-08-29T05:03:47.377Z,84.22
2022-08-29T05:04:47.376Z,84.49
2022-08-29T05:05:47.341Z,84.69
2022-08-29T05:06:47.361Z,84.90
2022-08-29T05:07:47.357Z,84.80
2022-08-29T05:08:47.384Z,84.80
2022-08-29T05:09:47.341Z,85.21
2022-08-29T05:10:47.293Z,84.90
2022-08-29T05:11:47.934Z,84.90
2022-08-29T05:12:47.288Z,84.08
2022-08-29T05:13:47.252Z,84.28
2022-08-29T05:14:47.246Z,84.49
2022-08-29T05:15:47.331Z,84.04
2022-08-29T05:16:47.237Z,84.04
2022-08-29T05:17:47.220Z,84.66
2022-08-29T05:18:47.200Z,84.45
2022-08-29T05:19:47.506Z,84.45
2022-08-29T05:20:47.180Z,84.34
2022-08-29T05:21:47.212Z,84.25
2022-08-29T05:22:47.150Z,83.73
2022-08-29T05:23:47.178Z,83.63
2022-08-29T05:24:47.127Z,83.39
2022-08-29T05:25:47.121Z,83.70
2022-08-29T05:26:47.135Z,83.59
2022-08-29T05:27:47.130Z,83.18
2022-08-29T05:28:47.106Z,83.18
2022-08-29T05:29:47.083Z,83.09
2022-08-29T05:30:47.072Z,82.88
2022-08-29T05:31:47.090Z,82.98
2022-08-29T05:32:47.033Z,82.68
2022-08-29T05:33:47.030Z,82.54
2022-08-29T05:34:47.027Z,82.33
2022-08-29T05:35:47.014Z,82.33
2022-08-29T05:36:47.038Z,82.64
2022-08-29T05:37:53.600Z,82.74
2022-08-29T05:38:47.005Z,82.50
2022-08-29T05:39:46.970Z,82.60
2022-08-29T05:40:46.948Z,82.40
2022-08-29T05:41:46.956Z,82.09
2022-08-29T05:42:46.930Z,82.29
2022-08-29T05:43:46.915Z,82.40
2022-08-29T05:44:46.896Z,82.46
2022-08-29T05:45:46.890Z,82.46
2022-08-29T05:46:46.950Z,82.46
2022-08-29T05:47:46.892Z,82.05
2022-08-29T05:48:46.852Z,81.85
2022-08-29T05:49:46.849Z,81.65
2022-08-29T05:50:46.833Z,81.60
2022-08-29T05:51:46.868Z,81.60
2022-08-29T05:52:46.818Z,81.40
2022-08-29T05:53:46.806Z,81.10
2022-08-29T05:54:46.796Z,80.79
2022-08-29T05:55:46.790Z,80.90
2022-08-29T05:56:46.784Z,81.06
2022-08-29T05:57:46.780Z,80.96
2022-08-29T05:58:46.738Z,80.96
2022-08-29T05:59:46.743Z,80.96
2022-08-29T06:00:46.849Z,80.82
2022-08-29T06:01:46.743Z,80.92
2022-08-29T06:02:46.784Z,80.41
2022-08-29T06:03:46.775Z,80.41
2022-08-29T06:04:46.671Z,80.21
2022-08-29T06:05:46.668Z,80.58
2022-08-29T06:06:46.712Z,80.37
2022-08-29T06:07:46.670Z,80.47
2022-08-29T06:08:46.626Z,80.07
2022-08-29T06:09:46.633Z,79.77
2022-08-29T06:10:46.604Z,80.37
2022-08-29T06:11:46.646Z,79.97
2022-08-29T06:12:46.600Z,79.93
2022-08-29T06:13:46.659Z,79.93
2022-08-29T06:14:50.222Z,80.84
2022-08-29T06:15:46.651Z,80.84
2022-08-29T06:16:46.557Z,80.74
2022-08-29T06:17:46.559Z,81.25
2022-08-29T06:18:46.559Z,80.84
2022-08-29T06:19:46.502Z,80.13
2022-08-29T06:20:46.492Z,79.99
2022-08-29T06:21:46.545Z,79.99
2022-08-29T06:22:46.493Z,80.30
2022-08-29T06:23:46.456Z,80.60
2022-08-29T06:24:46.445Z,80.30
2022-08-29T06:25:46.433Z,79.99
2022-08-29T06:26:46.457Z,79.85
2022-08-29T06:27:46.449Z,79.55
2022-08-29T06:28:46.502Z,79.45
2022-08-29T06:29:46.454Z,78.94
2022-08-29T06:30:46.572Z,79.04
2022-08-29T06:31:46.504Z,79.51
2022-08-29T06:32:46.487Z,79.51
2022-08-29T06:33:46.416Z,79.51
2022-08-29T06:34:46.366Z,79.31
2022-08-29T06:35:46.338Z,78.91
2022-08-29T06:36:46.341Z,78.50
2022-08-29T06:37:46.314Z,78.66
2022-08-29T06:38:46.362Z,78.26
2022-08-29T06:39:46.285Z,78.66
2022-08-29T06:40:46.399Z,78.66
2022-08-29T06:41:46.310Z,78.46
2022-08-29T06:42:46.263Z,78.87
2022-08-29T06:43:46.249Z,78.83
2022-08-29T06:44:46.257Z,78.63
2022-08-29T06:45:46.212Z,78.63
2022-08-29T06:46:46.251Z,78.53
2022-08-29T06:47:46.209Z,78.83
2022-08-29T06:48:46.191Z,78.49
2022-08-29T06:49:46.191Z,78.49
2022-08-29T06:50:46.293Z,78.28
2022-08-29T06:51:46.203Z,78.19
2022-08-29T06:52:47.008Z,77.54
2022-08-29T06:53:46.196Z,76.83
2022-08-29T06:54:46.124Z,76.73
2022-08-29T06:55:46.138Z,76.59
2022-08-29T06:56:46.142Z,76.39
2022-08-29T06:57:46.130Z,76.09
2022-08-29T06:58:46.108Z,75.79
2022-08-29T06:59:46.094Z,75.75
2022-08-29T07:00:49.527Z,75.55
2022-08-29T07:01:46.113Z,75.24
2022-08-29T07:02:46.114Z,75.01
2022-08-29T07:03:46.026Z,75.01
2022-08-29T07:04:46.029Z,75.31
2022-08-29T07:05:46.013Z,74.40
2022-08-29T07:06:46.002Z,74.30
2022-08-29T07:07:45.991Z,74.40
2022-08-29T07:08:54.704Z,74.40
2022-08-29T07:09:45.989Z,74.40
2022-08-29T07:10:45.951Z,74.50
2022-08-29T07:11:45.964Z,74.40
2022-08-29T07:12:45.987Z,74.26
2022-08-29T07:13:45.928Z,73.96
2022-08-29T07:14:45.898Z,73.05
2022-08-29T07:15:45.935Z,72.55
2022-08-29T07:16:45.911Z,72.04
2022-08-29T07:17:45.877Z,72.04
2022-08-29T07:18:45.856Z,72.44
2022-08-29T07:19:45.832Z,72.34
2022-08-29T07:20:45.835Z,72.14
2022-08-29T07:21:45.838Z,72.24
2022-08-29T07:22:45.846Z,72.44
2022-08-29T07:23:45.805Z,72.55
2022-08-29T07:24:45.781Z,72.95
2022-08-29T07:25:45.761Z,72.64
2022-08-29T07:26:45.787Z,72.14
2022-08-29T07:27:45.763Z,71.94
2022-08-29T07:28:47.235Z,72.24
2022-08-29T07:29:50.462Z,72.14
2022-08-29T07:30:45.784Z,72.55
2022-08-29T07:31:45.737Z,72.44
2022-08-29T07:32:45.707Z,72.41
2022-08-29T07:33:45.704Z,72.31
2022-08-29T07:34:45.667Z,72.00
2022-08-29T07:35:45.663Z,72.00
2022-08-29T07:36:45.696Z,71.77
2022-08-29T07:37:50.245Z,71.77
2022-08-29T07:38:45.616Z,71.26
2022-08-29T07:39:45.656Z,70.96
2022-08-29T07:40:45.654Z,71.17
2022-08-29T07:41:45.646Z,70.86
2022-08-29T07:42:45.578Z,70.62
2022-08-29T07:43:45.568Z,70.73
2022-08-29T07:44:45.566Z,70.62
2022-08-29T07:45:45.643Z,71.03
2022-08-29T07:46:45.552Z,70.73
2022-08-29T07:47:45.509Z,70.29
2022-08-29T07:48:45.504Z,70.29
2022-08-29T07:49:45.515Z,70.29
2022-08-29T07:50:45.497Z,70.26
2022-08-29T07:51:45.494Z,70.15
2022-08-29T07:52:45.495Z,69.85
2022-08-29T07:53:45.459Z,70.06
2022-08-29T07:54:45.433Z,68.85
2022-08-29T07:55:45.429Z,69.85
2022-08-29T07:56:45.462Z,68.74
2022-08-29T07:57:45.426Z,68.98
2022-08-29T07:58:45.415Z,69.38
2022-08-29T07:59:45.405Z,69.18
2022-08-29T08:00:45.391Z,69.59
2022-08-29T08:01:45.434Z,69.85
2022-08-29T08:02:45.470Z,69.65
2022-08-29T08:03:45.338Z,69.75
2022-08-29T08:04:45.341Z,69.62
2022-08-29T08:05:45.330Z,69.42
2022-08-29T08:06:45.316Z,69.01
2022-08-29T08:07:45.309Z,69.01
2022-08-29T08:08:45.312Z,68.78
2022-08-29T08:09:45.306Z,68.68
2022-08-29T08:10:47.883Z,68.58
2022-08-29T08:11:45.304Z,68.48
2022-08-29T08:12:45.253Z,68.38
2022-08-29T08:13:45.236Z,67.84
2022-08-29T08:14:45.231Z,67.74
2022-08-29T08:15:45.203Z,66.60
2022-08-29T08:16:45.255Z,65.30
2022-08-29T08:17:45.177Z,65.59
2022-08-29T08:18:45.183Z,64.76
2022-08-29T08:19:45.169Z,65.26
2022-08-29T08:20:45.133Z,65.16
2022-08-29T08:21:49.714Z,63.56
2022-08-29T08:22:45.185Z,64.43
2022-08-29T08:23:45.121Z,63.35
2022-08-29T08:24:45.113Z,63.15
2022-08-29T08:25:45.096Z,62.18
2022-08-29T08:26:45.397Z,62.38
2022-08-29T08:27:45.054Z,62.68
2022-08-29T08:28:45.063Z,62.75
2022-08-29T08:29:45.030Z,62.75
2022-08-29T08:30:45.053Z,63.02
2022-08-29T08:31:45.033Z,63.53
2022-08-29T08:32:46.980Z,63.29
2022-08-29T08:33:45.006Z,62.89
2022-08-29T08:34:44.980Z,63.46
2022-08-29T08:35:46.985Z,62.86
2022-08-29T08:36:44.993Z,65.10
2022-08-29T08:37:44.964Z,65.57
2022-08-29T08:38:44.940Z,65.10
2022-08-29T08:39:44.960Z,65.41
2022-08-29T08:40:44.979Z,65.37
2022-08-29T08:41:44.912Z,65.57
2022-08-29T08:42:44.901Z,65.57
2022-08-29T08:43:44.861Z,64.67
2022-08-29T08:44:44.867Z,64.74
2022-08-29T08:45:44.891Z,64.64
2022-08-29T08:46:44.861Z,64.04
2022-08-29T08:47:44.825Z,63.46
2022-08-29T08:48:44.845Z,62.76
2022-08-29T08:49:44.811Z,64.07
2022-08-29T08:50:44.793Z,64.67
2022-08-29T08:51:44.796Z,63.46
2022-08-29T08:52:44.773Z,62.69
2022-08-29T08:53:44.750Z,63.70
2022-08-29T08:54:44.753Z,64.20
2022-08-29T08:55:44.741Z,63.22
2022-08-29T08:56:44.745Z,64.73
2022-08-29T08:57:44.722Z,64.23
2022-08-29T08:58:44.705Z,64.43
2022-08-29T08:59:44.701Z,64.56
2022-08-29T09:00:44.675Z,65.23
2022-08-29T09:01:44.806Z,65.13
2022-08-29T09:02:44.731Z,64.93
2022-08-29T09:03:44.640Z,64.63
2022-08-29T09:04:44.627Z,65.00
2022-08-29T09:05:48.981Z,64.90
2022-08-29T09:06:44.628Z,65.00
2022-08-29T09:07:44.606Z,64.97
2022-08-29T09:08:44.584Z,64.57
2022-08-29T09:09:44.574Z,64.37
2022-08-29T09:10:44.577Z,64.57
2022-08-29T09:11:44.593Z,63.36
2022-08-29T09:12:44.537Z,63.06
2022-08-29T09:13:44.559Z,63.96
2022-08-29T09:14:44.514Z,64.57
2022-08-29T09:15:44.500Z,64.17
2022-08-29T09:16:44.564Z,63.79
2022-08-29T09:17:44.475Z,64.40
2022-08-29T09:18:49.885Z,64.27
2022-08-29T09:19:44.469Z,64.20
2022-08-29T09:20:44.462Z,64.30
2022-08-29T09:21:44.474Z,64.40
2022-08-29T09:22:44.422Z,64.40
2022-08-29T09:23:44.528Z,63.70
2022-08-29T09:24:44.484Z,64.17
2022-08-29T09:25:44.387Z,64.54
2022-08-29T09:26:44.396Z,64.11
2022-08-29T09:27:44.387Z,63.60
2022-08-29T09:28:44.368Z,63.98
2022-08-29T09:29:44.367Z,63.45
2022-08-29T09:30:44.346Z,62.11
2022-08-29T09:31:44.395Z,61.84
2022-08-29T09:32:44.362Z,61.81
2022-08-29T09:33:44.317Z,61.81
2022-08-29T09:35:07.425Z,61.48
2022-08-29T09:35:44.282Z,59.48
2022-08-29T09:36:47.553Z,60.88
2022-08-29T09:37:44.280Z,58.87
2022-08-29T09:38:44.274Z,60.18
2022-08-29T09:39:46.798Z,62.48
2022-08-29T09:40:44.314Z,60.38
2022-08-29T09:41:44.227Z,60.95
2022-08-29T09:42:44.212Z,61.25
2022-08-29T09:43:44.215Z,60.55
2022-08-29T09:44:44.199Z,60.12
2022-08-29T09:45:44.210Z,60.19
2022-08-29T09:46:44.185Z,60.16
2022-08-29T09:47:44.165Z,59.56
2022-08-29T09:48:44.134Z,58.69
2022-08-29T09:49:44.122Z,59.30
2022-08-29T09:50:44.129Z,59.19
2022-08-29T09:51:44.172Z,58.72
2022-08-29T09:52:44.101Z,60.05
2022-08-29T09:53:44.101Z,60.08
2022-08-29T09:54:44.073Z,60.75
2022-08-29T09:55:45.052Z,59.35
2022-08-29T09:56:44.090Z,59.28
2022-08-29T09:57:44.024Z,60.21
2022-08-29T09:58:44.053Z,61.21
2022-08-29T09:59:45.240Z,60.41
2022-08-29T10:00:44.095Z,60.61
2022-08-29T10:01:44.108Z,60.31
2022-08-29T10:02:44.167Z,60.78
2022-08-29T10:03:43.952Z,60.78
2022-08-29T10:04:43.943Z,61.51
2022-08-29T10:05:43.961Z,60.21
2022-08-29T10:06:48.378Z,61.28
2022-08-29T10:07:43.944Z,60.91
2022-08-29T10:08:43.910Z,61.68
2022-08-29T10:09:43.882Z,60.45
2022-08-29T10:10:43.878Z,59.55
2022-08-29T10:11:43.887Z,61.22
2022-08-29T10:12:43.862Z,60.02
2022-08-29T10:13:43.854Z,60.99
2022-08-29T10:14:50.467Z,59.97
2022-08-29T10:15:51.635Z,59.36
2022-08-29T10:16:43.865Z,59.14
2022-08-29T10:17:43.807Z,59.53
2022-08-29T10:18:43.789Z,58.01
2022-08-29T10:19:43.770Z,58.11
2022-08-29T10:20:43.765Z,57.64
2022-08-29T10:21:43.768Z,60.24
2022-08-29T10:22:43.747Z,58.37
2022-08-29T10:23:43.733Z,59.34
2022-08-29T10:24:43.718Z,57.97
2022-08-29T10:25:43.704Z,58.26
2022-08-29T10:26:43.725Z,57.87
2022-08-29T10:27:43.680Z,60.16
2022-08-29T10:28:43.669Z,58.06
2022-08-29T10:29:43.653Z,58.76
2022-08-29T10:30:43.701Z,58.67
2022-08-29T10:31:43.735Z,58.97
2022-08-29T10:32:43.626Z,58.17
2022-08-29T10:33:43.611Z,61.13
2022-08-29T10:34:43.628Z,58.31
2022-08-29T10:35:43.629Z,58.08
2022-08-29T10:36:43.601Z,57.58
2022-08-29T10:37:43.576Z,55.56
2022-08-29T10:38:43.596Z,57.28
2022-08-29T10:39:43.570Z,55.91
2022-08-29T10:40:43.793Z,57.81
2022-08-29T10:41:47.077Z,57.61
2022-08-29T10:42:43.533Z,58.61
2022-08-29T10:43:43.517Z,59.48
2022-08-29T10:44:43.502Z,57.28
2022-08-29T10:45:43.527Z,58.55
2022-08-29T10:46:43.516Z,58.55
2022-08-29T10:47:43.478Z,58.36
2022-08-29T10:48:43.440Z,58.72
2022-08-29T10:49:44.979Z,57.13
2022-08-29T10:50:45.087Z,55.43
2022-08-29T10:51:43.444Z,54.83
2022-08-29T10:52:43.400Z,56.66
2022-08-29T10:53:43.413Z,57.26
2022-08-29T10:54:43.388Z,59.32
2022-08-29T10:55:43.403Z,60.09
2022-08-29T10:56:43.386Z,57.28
2022-08-29T10:57:43.424Z,54.41
2022-08-29T10:58:43.345Z,56.13
2022-08-29T10:59:43.345Z,57.03
2022-08-29T11:00:43.391Z,58.10
2022-08-29T11:01:43.394Z,58.76
2022-08-29T11:02:43.287Z,57.07
2022-08-29T11:03:43.325Z,57.07
2022-08-29T11:04:43.263Z,56.98
2022-08-29T11:05:43.304Z,58.04
2022-08-29T11:06:43.263Z,57.05
2022-08-29T11:07:43.254Z,55.98
2022-08-29T11:08:43.249Z,57.00
2022-08-29T11:09:43.215Z,56.90
2022-08-29T11:10:43.199Z,59.19
2022-08-29T11:11:43.215Z,57.47
2022-08-29T11:12:43.175Z,55.58
2022-08-29T11:13:43.175Z,57.57
2022-08-29T11:14:43.181Z,58.37
2022-08-29T11:15:43.142Z,57.75
2022-08-29T11:16:43.189Z,56.72
2022-08-29T11:17:43.126Z,57.49
2022-08-29T11:18:43.104Z,54.63
2022-08-29T11:19:43.108Z,56.82
2022-08-29T11:20:43.103Z,56.92
2022-08-29T11:21:43.099Z,55.40
2022-08-29T11:22:43.066Z,54.90
2022-08-29T11:23:43.086Z,55.00
2022-08-29T11:24:47.065Z,53.86
2022-08-29T11:25:43.031Z,55.80
2022-08-29T11:26:43.039Z,57.40
2022-08-29T11:27:43.014Z,58.50
2022-08-29T11:29:43.028Z,58.24
2022-08-29T11:30:46.127Z,56.45
2022-08-29T11:31:43.098Z,55.35
2022-08-29T11:32:42.950Z,58.94
2022-08-29T11:33:42.960Z,56.62
2022-08-29T11:34:42.940Z,55.63
2022-08-29T11:35:42.923Z,55.23
2022-08-29T11:36:42.946Z,55.93
2022-08-29T11:37:42.981Z,56.52
2022-08-29T11:38:42.903Z,56.52
2022-08-29T11:39:42.934Z,55.82
2022-08-29T11:41:26.432Z,56.02
2022-08-29T11:41:42.953Z,56.42
2022-08-29T11:42:50.571Z,56.23
2022-08-29T11:43:42.834Z,54.83
2022-08-29T11:44:42.815Z,55.46
2022-08-29T11:45:42.805Z,58.44
2022-08-29T11:46:42.883Z,54.96
2022-08-29T11:47:42.806Z,57.10
2022-08-29T11:48:42.778Z,58.70
2022-08-29T11:49:42.797Z,57.57
2022-08-29T11:50:42.784Z,55.58
2022-08-29T11:51:42.786Z,56.40
2022-08-29T11:52:42.746Z,58.17
2022-08-29T11:53:42.727Z,58.04
2022-08-29T11:54:42.743Z,57.54
2022-08-29T11:55:42.784Z,57.62
2022-08-29T11:56:42.755Z,56.52
2022-08-29T11:57:42.677Z,56.32
2022-08-29T11:58:42.677Z,56.89
2022-08-29T11:59:42.670Z,55.50
2022-08-29T12:00:42.645Z,54.80
2022-08-29T12:01:42.689Z,57.46
2022-08-29T12:02:44.573Z,56.32
2022-08-29T12:03:42.618Z,53.14
2022-08-29T12:04:42.669Z,53.41
2022-08-29T12:05:42.592Z,54.90
2022-08-29T12:06:42.590Z,53.91
2022-08-29T12:07:42.561Z,54.00
2022-08-29T12:08:42.574Z,53.73
2022-08-29T12:09:42.549Z,52.84
2022-08-29T12:10:42.552Z,52.86
2022-08-29T12:11:42.551Z,54.16
2022-08-29T12:12:42.591Z,53.76
2022-08-29T12:13:42.584Z,55.05
2022-08-29T12:14:42.513Z,54.95
2022-08-29T12:15:42.488Z,54.65
2022-08-29T12:16:42.699Z,53.88
2022-08-29T12:18:00.967Z,55.38
2022-08-29T12:18:42.462Z,54.46
2022-08-29T12:19:42.435Z,54.06
2022-08-29T12:20:42.435Z,54.06
2022-08-29T12:21:42.439Z,54.53
2022-08-29T12:23:42.384Z,54.46
2022-08-29T12:24:42.392Z,54.35
2022-08-29T12:25:42.409Z,55.62
2022-08-29T12:26:42.377Z,53.01
2022-08-29T12:27:42.372Z,52.69
2022-08-29T12:28:42.369Z,54.35
2022-08-29T12:29:44.871Z,51.28
2022-08-29T12:30:42.366Z,52.86
2022-08-29T12:31:51.706Z,52.84
2022-08-29T12:32:42.309Z,53.97
2022-08-29T12:33:42.288Z,52.46
2022-08-29T12:34:42.284Z,50.36
2022-08-29T12:35:42.254Z,49.94
2022-08-29T12:36:52.279Z,49.42
2022-08-29T12:37:42.268Z,48.43
2022-08-29T12:38:42.680Z,48.06
2022-08-29T12:39:42.227Z,48.08
2022-08-29T12:40:42.320Z,50.58
2022-08-29T12:41:42.230Z,48.92
2022-08-29T12:42:42.201Z,50.43
2022-08-29T12:43:42.177Z,52.02
2022-08-29T12:44:42.265Z,53.08
2022-08-29T12:45:42.221Z,52.09
2022-08-29T12:46:42.211Z,51.57
2022-08-29T12:47:45.859Z,50.11
2022-08-29T12:48:42.099Z,48.85
2022-08-29T12:49:43.122Z,50.26
2022-08-29T12:50:42.092Z,52.34
2022-08-29T12:51:42.101Z,51.94
2022-08-29T12:52:42.101Z,49.54
2022-08-29T12:53:42.070Z,51.70
2022-08-29T12:54:42.055Z,50.88